Time;durP1;ratioP1;P1;durP2;ratioP2;P2;SDS_P1;SDS_P2;PMS_P1;PMS_P2;Temp;Humidity;BMP_temperature;BMP_pressure;BME280_temperature;BME280_humidity;BME280_pressure;Samples;Min_cycle;Max_cycle;Signal;HPM_P1;HPM_P2
2021/08/14 00:01:06;;;;;;;6.57;3.25;;;;;;;;;;6126447;23;20072;-96
2021/08/14 00:03:32;;;;;;;12.10;3.50;;;;;;;;;;6126836;23;20052;-96
2021/08/14 00:05:58;;;;;;;7.90;4.10;;;;;;;;;;6125376;23;20010;-96
2021/08/14 00:08:24;;;;;;;10.13;3.80;;;;;;;;;;6127151;23;20002;-95
2021/08/14 00:10:50;;;;;;;9.60;4.03;;;;;;;;;;6127468;23;20006;-95
2021/08/14 00:13:16;;;;;;;9.52;3.35;;;;;;;;;;6125949;23;20520;-95
2021/08/14 00:15:42;;;;;;;6.32;3.25;;;;;;;;;;6128360;23;20017;-96
2021/08/14 00:18:09;;;;;;;8.05;4.60;;;;;;;;;;6104862;23;20029;-94
2021/08/14 00:20:35;;;;;;;6.10;3.95;;;;;;;;;;6072545;23;19998;-96
2021/08/14 00:23:01;;;;;;;6.78;3.53;;;;;;;;;;6072026;23;20006;-95
2021/08/14 00:25:27;;;;;;;6.55;4.07;;;24.50;73.70;;;;;;6072203;23;20013;-96
2021/08/14 00:27:54;;;;;;;8.68;3.38;;;;;;;;;;6097358;23;20011;-96
2021/08/14 00:30:20;;;;;;;10.25;3.13;;;;;;;;;;6097501;23;20002;-95
2021/08/14 00:32:46;;;;;;;6.38;3.65;;;;;;;;;;6096999;23;20446;-94
2021/08/14 00:35:12;;;;;;;8.73;3.35;;;;;;;;;;6072341;23;20002;-95
2021/08/14 00:37:38;;;;;;;4.70;3.28;;;;;;;;;;6072546;23;20007;-95
2021/08/14 00:40:05;;;;;;;8.98;3.65;;;;;;;;;;6073191;23;20065;-95
2021/08/14 00:42:32;;;;;;;7.68;3.40;;;;;;;;;;6072685;23;20089;-95
2021/08/14 00:44:58;;;;;;;6.30;4.10;;;;;;;;;;6074036;23;20006;-96
2021/08/14 00:47:28;;;;;;;9.20;3.03;;;;;;;;;;6098582;23;20011;-94
2021/08/14 00:49:54;;;;;;;10.95;4.20;;;;;;;;;;6073726;23;20026;-96
2021/08/14 00:52:21;;;;;;;8.48;4.03;;;;;;;;;;6098857;23;20015;-95
2021/08/14 00:54:47;;;;;;;3.57;3.00;;;;;;;;;;6098446;23;20007;-95
2021/08/14 00:57:15;;;;;;;11.02;3.47;;;24.00;75.10;;;;;;6074588;23;20010;-95
2021/08/14 00:59:41;;;;;;;9.32;3.20;;;;;;;;;;6078053;23;20002;-96
2021/08/14 01:02:07;;;;;;;8.43;3.77;;;;;;;;;;6078402;23;20042;-96
2021/08/14 01:04:33;;;;;;;13.27;3.78;;;;;;;;;;6081371;23;20058;-96
2021/08/14 01:07:00;;;;;;;14.65;3.75;;;;;;;;;;6080839;23;20006;-96
2021/08/14 01:09:27;;;;;;;6.40;3.00;;;23.80;76.00;;;;;;6104953;23;20030;-96
2021/08/14 01:11:53;;;;;;;12.95;4.55;;;;;;;;;;6079981;23;20393;-96
2021/08/14 01:14:19;;;;;;;12.57;3.92;;;;;;;;;;6107038;23;20003;-96
2021/08/14 01:16:45;;;;;;;17.27;4.20;;;;;;;;;;6103250;23;20468;-95
2021/08/14 01:19:11;;;;;;;11.05;3.70;;;;;;;;;;6129045;23;20012;-95
2021/08/14 01:21:38;;;;;;;7.88;3.92;;;;;;;;;;6128244;23;20014;-96
2021/08/14 01:24:04;;;;;;;13.27;3.45;;;;;;;;;;6127654;23;20346;-95
2021/08/14 01:26:31;;;;;;;11.75;3.72;;;23.80;75.10;;;;;;6128596;23;20080;-95
2021/08/14 01:28:57;;;;;;;8.23;3.72;;;;;;;;;;6127361;23;20010;-95
2021/08/14 01:31:23;;;;;;;11.23;4.03;;;;;;;;;;6125919;23;20010;-95
2021/08/14 01:33:49;;;;;;;10.48;3.58;;;;;;;;;;6129326;23;20013;-95
2021/08/14 01:36:17;;;;;;;6.80;4.03;;;23.80;73.80;;;;;;6127829;23;20453;-96
2021/08/14 01:38:47;;;;;;;7.13;4.78;;;;;;;;;;6101718;23;20088;-95
2021/08/14 01:41:14;;;;;;;5.57;3.28;;;;;;;;;;6128873;23;20041;-96
2021/08/14 01:44:03;;;;;;;20.45;4.88;;;23.70;75.10;;;;;;6129071;23;20034;-96
2021/08/14 01:46:34;;;;;;;6.10;3.08;;;23.70;75.40;;;;;;6101561;23;20505;-96
2021/08/14 01:49:00;;;;;;;5.93;3.75;;;;;;;;;;6102258;23;20074;-96
2021/08/14 01:51:27;;;;;;;6.07;3.90;;;;;;;;;;6126540;23;20005;-96
2021/08/14 01:53:55;;;;;;;8.63;3.78;;;23.70;75.80;;;;;;6127582;23;20437;-95
2021/08/14 01:56:23;;;;;;;9.00;4.38;;;23.80;75.50;;;;;;6127552;23;20033;-95
2021/08/14 01:58:49;;;;;;;7.80;4.20;;;;;;;;;;6129164;23;20062;-96
2021/08/14 02:01:16;;;;;;;9.50;3.67;;;;;;;;;;6127111;23;20031;-95
2021/08/14 02:03:42;;;;;;;7.35;3.60;;;;;;;;;;6129009;23;20226;-94
2021/08/14 02:06:08;;;;;;;8.15;3.38;;;;;;;;;;6127654;23;20021;-94
2021/08/14 02:08:34;;;;;;;10.25;3.20;;;;;;;;;;6126492;23;20006;-95
2021/08/14 02:11:01;;;;;;;13.70;3.85;;;;;;;;;;6126638;23;20006;-95
2021/08/14 02:13:29;;;;;;;7.47;3.17;;;23.60;75.50;;;;;;6126436;23;20009;-94
2021/08/14 02:15:57;;;;;;;5.72;3.45;;;;;;;;;;6132073;23;20009;-96
2021/08/14 02:18:23;;;;;;;10.88;5.07;;;;;;;;;;6129938;23;20034;-96
2021/08/14 02:20:49;;;;;;;7.45;3.92;;;;;;;;;;6130093;23;20015;-96
2021/08/14 02:23:15;;;;;;;6.50;3.72;;;;;;;;;;6128531;23;20046;-96
2021/08/14 02:25:41;;;;;;;10.13;3.92;;;;;;;;;;6128434;23;20555;-96
2021/08/14 02:28:07;;;;;;;10.25;3.75;;;;;;;;;;6132576;23;20010;-96
2021/08/14 02:30:33;;;;;;;7.78;3.40;;;;;;;;;;6133445;23;20441;-96
2021/08/14 02:32:59;;;;;;;11.40;4.30;;;;;;;;;;6129466;23;20010;-96
2021/08/14 02:35:28;;;;;;;5.82;2.88;;;;;;;;;;6129812;23;20012;-96
2021/08/14 02:37:58;;;;;;;4.75;3.08;;;23.50;74.40;;;;;;6108202;23;20073;-96
2021/08/14 02:40:25;;;;;;;6.18;3.33;;;;;;;;;;6107854;23;20445;-96
2021/08/14 02:42:51;;;;;;;7.38;3.20;;;;;;;;;;6134195;23;20345;-96
2021/08/14 02:45:17;;;;;;;6.53;3.45;;;;;;;;;;6133943;23;20006;-96
2021/08/14 02:47:55;;;;;;;7.78;2.63;;;23.20;75.30;;;;;;6142560;23;20002;-95
2021/08/14 02:50:25;;;;;;;11.32;5.00;;;;;;;;;;6113248;23;20017;-96
2021/08/14 02:52:52;;;;;;;8.80;3.40;;;;;;;;;;6133844;23;20029;-96
2021/08/14 02:55:19;;;;;;;9.40;3.38;;;;;;;;;;6136340;23;20002;-96
2021/08/14 02:57:49;;;;;;;6.95;3.60;;;;;;;;;;6112728;23;20033;-95
2021/08/14 03:00:18;;;;;;;8.15;3.53;;;;;;;;;;6112419;23;20009;-96
2021/08/14 03:02:47;;;;;;;7.07;4.30;;;;;;;;;;6140538;23;20078;-96
2021/08/14 03:05:14;;;;;;;10.70;3.03;;;;;;;;;;6134836;23;19998;-95
2021/08/14 03:07:40;;;;;;;13.30;4.03;;;;;;;;;;6135770;23;20010;-96
2021/08/14 03:10:09;;;;;;;7.68;4.38;;;;;;;;;;6135768;23;20009;-96
2021/08/14 03:12:36;;;;;;;8.60;3.90;;;;;;;;;;6132727;23;20010;-96
2021/08/14 03:15:02;;;;;;;5.25;2.95;;;;;;;;;;6131113;23;20430;-96
2021/08/14 03:17:30;;;;;;;7.22;2.35;;;;;;;;;;6129138;23;20018;-96
2021/08/14 03:19:59;;;;;;;7.93;3.25;;;;;;;;;;6132465;23;20006;-96
2021/08/14 03:22:25;;;;;;;11.15;3.75;;;;;;;;;;6106347;23;20026;-96
2021/08/14 03:24:51;;;;;;;10.25;3.05;;;;;;;;;;6134619;23;20053;-96
2021/08/14 03:27:18;;;;;;;12.20;4.25;;;;;;;;;;6130209;23;20006;-95
2021/08/14 03:29:45;;;;;;;5.75;3.95;;;;;;;;;;6129777;23;20090;-96
2021/08/14 03:32:12;;;;;;;10.05;3.88;;;;;;;;;;6130508;23;20005;-95
2021/08/14 03:34:38;;;;;;;6.65;3.67;;;;;;;;;;6129246;23;20013;-95
2021/08/14 03:37:04;;;;;;;3.88;2.22;;;;;;;;;;6128877;23;20013;-95
2021/08/14 03:39:30;;;;;;;5.72;2.85;;;;;;;;;;6128269;23;20006;-96
2021/08/14 03:41:56;;;;;;;4.88;3.13;;;;;;;;;;6126692;23;20049;-96
2021/08/14 03:44:22;;;;;;;11.15;3.65;;;;;;;;;;6129398;23;20013;-96
2021/08/14 03:46:48;;;;;;;8.50;4.53;;;;;;;;;;6103438;23;20014;-96
2021/08/14 03:49:15;;;;;;;7.05;3.30;;;;;;;;;;6130393;23;20028;-96
2021/08/14 03:51:41;;;;;;;5.40;3.10;;;;;;;;;;6128807;23;20460;-96
2021/08/14 03:54:07;;;;;;;9.70;3.00;;;;;;;;;;6128090;23;20010;-96
2021/08/14 03:56:33;;;;;;;14.50;5.25;;;;;;;;;;6126708;23;20010;-96
2021/08/14 03:58:59;;;;;;;6.35;3.20;;;;;;;;;;6127327;23;20775;-96
2021/08/14 04:01:25;;;;;;;9.93;3.88;;;;;;;;;;6128633;23;20018;-96
2021/08/14 04:03:51;;;;;;;11.13;3.97;;;;;;;;;;6128011;23;20002;-96
2021/08/14 04:06:17;;;;;;;14.98;4.05;;;;;;;;;;6126315;23;20005;-95
2021/08/14 04:08:43;;;;;;;7.75;3.42;;;;;;;;;;6127581;23;20086;-95
2021/08/14 04:11:09;;;;;;;7.85;3.65;;;;;;;;;;6127055;23;20041;-95
2021/08/14 04:13:36;;;;;;;3.53;2.63;;;;;;;;;;6127584;23;20090;-95
2021/08/14 04:16:02;;;;;;;7.10;2.53;;;;;;;;;;6127514;23;20005;-95
2021/08/14 04:18:28;;;;;;;8.10;2.85;;;;;;;;;;6126128;23;20018;-96
2021/08/14 04:20:55;;;;;;;6.93;2.90;;;;;;;;;;6128463;23;20061;-95
2021/08/14 04:23:21;;;;;;;11.68;3.40;;;;;;;;;;6127090;23;20006;-96
2021/08/14 04:25:47;;;;;;;6.65;2.72;;;;;;;;;;6126783;23;20448;-96
2021/08/14 04:28:13;;;;;;;9.90;4.10;;;;;;;;;;6126624;23;20001;-96
2021/08/14 04:30:39;;;;;;;4.88;2.97;;;;;;;;;;6128161;23;20029;-96
2021/08/14 04:33:05;;;;;;;9.30;3.88;;;;;;;;;;6126236;23;20017;-95
2021/08/14 04:35:31;;;;;;;5.63;3.00;;;;;;;;;;6128249;23;20314;-96
2021/08/14 04:37:57;;;;;;;9.43;3.70;;;;;;;;;;6126589;23;20006;-94
2021/08/14 04:40:23;;;;;;;14.73;4.85;;;;;;;;;;6125662;23;20012;-95
2021/08/14 04:42:49;;;;;;;15.80;4.80;;;;;;;;;;6126064;23;20024;-96
2021/08/14 04:45:16;;;;;;;12.90;3.90;;;;;;;;;;6127728;23;20012;-96
2021/08/14 04:47:42;;;;;;;5.90;3.37;;;;;;;;;;6127331;23;20029;-96
2021/08/14 04:50:09;;;;;;;10.55;4.10;;;;;;;;;;6127389;23;20002;-94
2021/08/14 04:52:35;;;;;;;9.43;4.60;;;;;;;;;;6125978;23;20031;-96
2021/08/14 04:55:01;;;;;;;11.13;3.83;;;;;;;;;;6125942;23;20002;-96
2021/08/14 04:57:27;;;;;;;15.75;5.07;;;;;;;;;;6126490;23;20037;-94
2021/08/14 04:59:53;;;;;;;14.75;4.13;;;;;;;;;;6125843;23;20499;-95
2021/08/14 05:02:20;;;;;;;6.03;3.05;;;;;;;;;;6126875;23;20122;-95
2021/08/14 05:04:46;;;;;;;13.73;4.33;;;;;;;;;;6126892;23;20002;-96
2021/08/14 05:07:12;;;;;;;15.52;4.00;;;;;;;;;;6125314;23;20006;-95
2021/08/14 05:09:38;;;;;;;9.38;3.80;;;;;;;;;;6124815;23;20013;-95
2021/08/14 05:12:05;;;;;;;9.18;4.35;;;;;;;;;;6124760;23;20449;-94
2021/08/14 05:14:31;;;;;;;7.18;3.25;;;;;;;;;;6127263;23;20349;-95
2021/08/14 05:16:57;;;;;;;7.05;3.67;;;;;;;;;;6126639;23;20026;-96
2021/08/14 05:19:23;;;;;;;11.77;4.05;;;;;;;;;;6125689;23;20444;-95
2021/08/14 05:21:49;;;;;;;8.68;4.05;;;;;;;;;;6124837;23;20014;-96
2021/08/14 05:24:15;;;;;;;9.60;4.25;;;;;;;;;;6125295;23;20002;-95
2021/08/14 05:26:42;;;;;;;8.82;2.90;;;;;;;;;;6125105;23;20098;-96
2021/08/14 05:29:08;;;;;;;6.65;2.97;;;;;;;;;;6126805;23;20009;-95
2021/08/14 05:31:34;;;;;;;3.50;2.60;;;;;;;;;;6124812;23;20038;-95
2021/08/14 05:34:04;;;;;;;8.85;3.35;;;;;;;;;;6126425;23;20048;-94
2021/08/14 05:36:31;;;;;;;8.35;3.42;;;;;;;;;;6124994;23;20009;-96
2021/08/14 05:38:57;;;;;;;9.55;3.08;;;;;;;;;;6126520;23;20002;-96
2021/08/14 05:41:23;;;;;;;3.42;2.58;;;;;;;;;;6124919;23;20076;-95
2021/08/14 05:43:49;;;;;;;6.75;3.20;;;;;;;;;;6125041;23;20449;-96
2021/08/14 05:46:15;;;;;;;4.65;2.70;;;;;;;;;;6126325;23;20065;-95
2021/08/14 05:48:41;;;;;;;9.50;3.25;;;;;;;;;;6125525;23;20045;-96
2021/08/14 05:51:07;;;;;;;16.75;3.65;;;;;;;;;;6126658;23;20014;-96
2021/08/14 05:53:33;;;;;;;4.22;3.15;;;;;;;;;;6127772;23;20029;-95
2021/08/14 05:55:59;;;;;;;6.07;3.20;;;;;;;;;;6127063;23;20081;-96
2021/08/14 05:58:25;;;;;;;6.65;3.10;;;;;;;;;;6125579;23;20006;-96
2021/08/14 06:00:51;;;;;;;6.05;2.95;;;;;;;;;;6126085;23;20036;-96
2021/08/14 06:03:17;;;;;;;8.50;4.00;;;;;;;;;;6128390;23;20006;-96
2021/08/14 06:05:46;;;;;;;5.20;3.13;;;;;;;;;;6126091;23;20580;-96
2021/08/14 06:08:12;;;;;;;8.02;3.53;;;;;;;;;;6126774;23;20508;-96
2021/08/14 06:10:38;;;;;;;7.38;3.88;;;;;;;;;;6128048;23;20010;-96
2021/08/14 06:13:04;;;;;;;5.50;3.72;;;;;;;;;;6129744;23;20014;-96
2021/08/14 06:15:30;;;;;;;5.82;2.92;;;;;;;;;;6130268;23;20057;-96
2021/08/14 06:17:56;;;;;;;6.78;2.85;;;;;;;;;;6130744;23;20457;-96
2021/08/14 06:20:22;;;;;;;4.60;3.35;;;;;;;;;;6129348;23;20006;-96
2021/08/14 06:22:51;;;;;;;5.43;2.53;;;;;;;;;;6134336;23;20018;-96
2021/08/14 06:25:17;;;;;;;11.50;3.72;;;;;;;;;;6114437;23;20137;-96
2021/08/14 06:27:44;;;;;;;6.68;3.00;;;;;;;;;;6134665;23;20026;-96
2021/08/14 06:30:10;;;;;;;8.10;3.95;;;;;;;;;;6134687;23;20074;-95
2021/08/14 06:32:37;;;;;;;8.52;3.65;;;;;;;;;;6134265;23;20032;-96
2021/08/14 06:35:04;;;;;;;11.38;4.57;;;;;;;;;;6132850;23;20006;-96
2021/08/14 06:37:30;;;;;;;;;;;24.60;73.40;;;;;;6132995;23;20014;-96
2021/08/14 06:39:59;;;;;;;5.32;3.38;;;24.70;73.10;;;;;;6132677;23;20340;-96
2021/08/14 06:42:25;;;;;;;5.45;3.53;;;;;;;;;;6130262;23;20014;-96
2021/08/14 06:44:51;;;;;;;5.90;3.42;;;;;;;;;;6129440;23;20073;-94
2021/08/14 06:47:17;;;;;;;4.30;3.33;;;;;;;;;;6129380;23;20021;-96
2021/08/14 06:49:43;;;;;;;7.40;3.10;;;;;;;;;;6128942;23;20013;-95
2021/08/14 06:52:09;;;;;;;13.13;4.32;;;;;;;;;;6129788;23;20011;-95
2021/08/14 06:54:35;;;;;;;12.30;4.70;;;;;;;;;;6128938;23;20005;-95
2021/08/14 06:57:01;;;;;;;9.98;3.47;;;;;;;;;;6128568;23;20025;-95
2021/08/14 06:59:27;;;;;;;9.18;3.90;;;;;;;;;;6128264;23;20013;-95
2021/08/14 07:01:53;;;;;;;6.75;3.38;;;;;;;;;;6127026;23;20034;-95
2021/08/14 07:04:19;;;;;;;5.53;4.63;;;;;;;;;;6127898;23;20077;-96
2021/08/14 07:06:45;;;;;;;7.05;3.85;;;;;;;;;;6127992;23;20075;-95
2021/08/14 07:09:11;;;;;;;10.18;4.72;;;;;;;;;;6127894;23;20717;-96
2021/08/14 07:11:37;;;;;;;8.20;2.85;;;;;;;;;;6127968;23;20018;-95
2021/08/14 07:14:03;;;;;;;5.50;2.72;;;;;;;;;;6127653;23;20460;-95
2021/08/14 07:16:29;;;;;;;7.75;2.90;;;;;;;;;;6127449;23;20006;-95
2021/08/14 07:18:55;;;;;;;6.68;3.22;;;;;;;;;;6127866;23;20013;-96
2021/08/14 07:21:21;;;;;;;8.15;2.50;;;;;;;;;;6125665;23;20037;-94
2021/08/14 07:23:47;;;;;;;9.80;2.73;;;;;;;;;;6127655;23;20584;-95
2021/08/14 07:26:13;;;;;;;8.50;4.30;;;;;;;;;;6126180;23;20029;-94
2021/08/14 07:28:39;;;;;;;24.23;5.23;;;;;;;;;;6126378;23;20040;-96
2021/08/14 07:31:05;;;;;;;5.95;2.80;;;;;;;;;;6127526;23;20008;-96
2021/08/14 07:33:31;;;;;;;12.27;3.85;;;;;;;;;;6125713;23;20422;-95
2021/08/14 07:35:57;;;;;;;8.68;2.75;;;;;;;;;;6127669;23;20006;-96
2021/08/14 07:38:23;;;;;;;6.78;3.35;;;;;;;;;;6128236;23;20014;-94
2021/08/14 07:40:49;;;;;;;4.60;2.45;;;;;;;;;;6127022;23;20067;-95
2021/08/14 07:43:15;;;;;;;11.57;3.60;;;;;;;;;;6126056;23;20567;-96
2021/08/14 07:45:41;;;;;;;6.85;2.67;;;;;;;;;;6127786;23;20023;-94
2021/08/14 07:48:08;;;;;;;5.38;2.50;;;;;;;;;;6126207;23;20016;-95
2021/08/14 07:50:34;;;;;;;;;;;40.00;37.80;;;;;;6128804;23;19998;-95
2021/08/14 07:53:02;;;;;;;6.30;3.38;;;;;;;;;;6101854;23;19932;-95
2021/08/14 07:55:28;;;;;;;5.78;2.58;;;;;;;;;;6128152;23;20002;-96
2021/08/14 07:57:54;;;;;;;6.30;2.42;;;;;;;;;;6126949;23;20006;-95
2021/08/14 08:00:21;;;;;;;7.68;2.65;;;;;;;;;;6127366;23;20053;-95
2021/08/14 08:02:48;;;;;;;5.72;2.35;;;;;;;;;;6128001;23;20013;-94
2021/08/14 08:05:14;;;;;;;10.43;2.97;;;;;;;;;;6128642;23;20002;-95
2021/08/14 08:07:43;;;;;;;6.88;2.83;;;;;;;;;;6128062;23;20014;-96
2021/08/14 08:10:09;;;;;;;10.20;3.35;;;;;;;;;;6128927;23;20002;-95
2021/08/14 08:12:36;;;;;;;5.80;3.05;;;;;;;;;;6126859;23;20010;-95
2021/08/14 08:15:02;;;;;;;6.00;2.95;;;;;;;;;;6127151;23;20010;-96
2021/08/14 08:17:28;;;;;;;;;;;41.70;34.20;;;;;;6127659;23;20029;-95
2021/08/14 08:19:54;;;;;;;6.28;3.15;;;;;;;;;;6103222;23;20244;-94
2021/08/14 08:22:21;;;;;;;4.63;2.58;;;;;;;;;;6128295;23;20014;-95
2021/08/14 08:24:47;;;;;;;7.22;3.30;;;;;;;;;;6127879;23;20345;-94
2021/08/14 08:27:13;;;;;;;6.28;2.78;;;;;;;;;;6128474;23;20029;-95
2021/08/14 08:29:39;;;;;;;5.45;3.08;;;;;;;;;;6128831;23;20085;-94
2021/08/14 08:32:08;;;;;;;7.95;3.30;;;;;;;;;;6126423;23;20006;-94
2021/08/14 08:34:34;;;;;;;7.13;3.45;;;;;;;;;;6128671;23;20491;-96
2021/08/14 08:37:00;;;;;;;;;;;42.60;33.40;;;;;;6129638;23;20479;-96
2021/08/14 08:39:26;;;;;;;5.35;2.95;;;;;;;;;;6128561;23;19900;-96
2021/08/14 08:41:53;;;;;;;6.70;2.75;;;;;;;;;;6127168;23;20017;-96
2021/08/14 08:44:19;;;;;;;6.25;2.55;;;;;;;;;;6129712;23;20081;-96
2021/08/14 08:46:48;;;;;;;5.18;3.45;;;;;;;;;;6127741;23;20067;-95
2021/08/14 08:49:15;;;;;;;5.30;2.83;;;;;;;;;;6128144;23;20081;-96
2021/08/14 08:51:41;;;;;;;12.18;3.38;;;;;;;;;;6126880;23;20016;-96
2021/08/14 08:54:07;;;;;;;;;;;41.30;35.00;;;;;;6129511;23;20033;-94
2021/08/14 08:56:33;;;;;;;8.13;3.13;;;;;;;;;;6128812;23;19901;-96
2021/08/14 08:59:00;;;;;;;4.60;2.53;;;;;;;;;;6128781;23;20010;-96
2021/08/14 09:01:26;;;;;;;2.35;1.65;;;;;;;;;;6128109;23;20068;-95
2021/08/14 09:03:53;;;;;;;;;;;40.50;36.30;;;;;;6128707;23;20028;-95
2021/08/14 09:06:39;;;;;;;6.00;2.92;;;;;;;;;;6130363;23;19905;-95
2021/08/14 09:09:08;;;;;;;10.45;3.28;;;;;;;;;;6128462;23;20021;-95
2021/08/14 09:11:34;;;;;;;7.68;3.42;;;;;;;;;;6127834;23;20472;-96
2021/08/14 09:14:04;;;;;;;;;;;40.30;36.50;;;;;;6127538;23;20013;-94
2021/08/14 09:16:30;;;;;;;6.18;2.42;;;;;;;;;;6129584;23;20299;-96
2021/08/14 09:19:00;;;;;;;;;;;39.90;37.30;;;;;;6127827;23;20010;-96
2021/08/14 09:21:37;;;;;;;4.90;2.42;;;39.50;38.30;;;;;;6128467;23;19909;-95
2021/08/14 09:24:04;;;;;;;8.38;3.17;;;;;;;;;;6128056;23;20423;-96
2021/08/14 09:26:44;;;;;;;7.25;2.97;;;;;;;;;;6128672;23;20018;-95
2021/08/14 09:29:10;;;;;;;3.50;2.17;;;;;;;;;;6128735;23;20040;-96
2021/08/14 09:31:48;;;;;;;;;;;38.90;40.10;;;;;;6127409;23;20010;-96
2021/08/14 09:34:16;;;;;;;11.60;2.90;;;;;;;;;;6104184;23;19901;-96
2021/08/14 09:36:44;;;;;;;11.48;2.45;;;;;;;;;;6129694;23;20002;-95
2021/08/14 09:39:10;;;;;;;7.35;2.35;;;;;;;;;;6130451;23;20030;-94
2021/08/14 09:41:35;;;;;;;;;;;38.60;40.80;;;;;;6127387;23;20042;-95
2021/08/14 09:44:02;;;;;;;6.88;3.33;;;;;;;;;;6102489;23;20165;-95
2021/08/14 09:46:43;;;;;;;11.57;3.00;;;38.70;40.60;;;;;;6130035;23;20006;-94
2021/08/14 09:49:10;;;;;;;10.43;3.00;;;;;;;;;;6128884;23;20022;-96
2021/08/14 09:51:37;;;;;;;6.45;2.92;;;;;;;;;;6130106;23;19998;-95
2021/08/14 09:54:05;;;;;;;7.65;3.53;;;;;;;;;;6126761;23;20010;-93
2021/08/14 09:56:40;;;;;;;8.98;3.47;;;;;;;;;;6129143;23;20009;-96
2021/08/14 09:59:07;;;;;;;10.55;3.00;;;;;;;;;;6128593;23;20014;-95
2021/08/14 10:01:36;;;;;;;6.13;3.00;;;;;;;;;;6127417;23;20006;-95
2021/08/14 10:04:02;;;;;;;7.15;2.75;;;;;;;;;;6129133;23;20011;-95
2021/08/14 10:06:28;;;;;;;8.65;2.88;;;;;;;;;;6130431;23;20010;-96
2021/08/14 10:08:54;;;;;;;5.70;2.40;;;;;;;;;;6129476;23;20009;-94
2021/08/14 10:11:21;;;;;;;5.88;2.10;;;;;;;;;;6129541;23;20013;-95
2021/08/14 10:13:47;;;;;;;3.97;2.40;;;;;;;;;;6129634;23;20018;-96
2021/08/14 10:16:15;;;;;;;5.90;3.20;;;;;;;;;;6130971;23;20010;-96
2021/08/14 10:18:46;;;;;;;4.63;2.42;;;;;;;;;;6130594;23;20050;-96
2021/08/14 10:21:14;;;;;;;19.13;3.53;;;;;;;;;;6104743;23;20014;-96
2021/08/14 10:23:40;;;;;;;6.28;3.00;;;;;;;;;;6130535;23;20010;-95
2021/08/14 10:26:07;;;;;;;4.05;2.38;;;;;;;;;;6129411;23;20476;-94
2021/08/14 10:28:47;;;;;;;7.45;3.38;;;;;;;;;;6129941;23;20006;-95
2021/08/14 10:31:45;;;;;;;5.60;1.95;;;;;;;;;;6129397;23;20013;-95
2021/08/14 10:34:16;;;;;;;6.38;2.25;;;;;;;;;;6042575;23;20014;-96
2021/08/14 10:36:43;;;;;;;;;;;38.70;42.30;;;;;;6018707;23;20027;-96
2021/08/14 10:39:16;;;;;;;7.28;2.38;;;;;;;;;;6041556;23;20353;-96
2021/08/14 10:41:43;;;;;;;12.05;4.35;;;;;;;;;;6041782;23;20034;-94
2021/08/14 10:44:09;;;;;;;7.80;2.97;;;;;;;;;;6042795;23;20063;-96
2021/08/14 10:46:37;;;;;;;7.90;3.38;;;;;;;;;;6021567;23;20014;-96
2021/08/14 10:49:04;;;;;;;6.13;2.80;;;;;;;;;;6042537;23;20003;-95
2021/08/14 10:51:48;;;;;;;8.50;2.85;;;;;;;;;;6043657;23;20007;-94
2021/08/14 10:54:37;;;;;;;9.60;3.83;;;;;;;;;;6045282;23;20038;-95
2021/08/14 10:57:09;;;;;;;5.90;2.72;;;;;;;;;;6042476;23;20038;-96
2021/08/14 10:59:40;;;;;;;6.85;3.13;;;;;;;;;;6045285;23;20004;-96
2021/08/14 11:02:09;;;;;;;7.10;3.15;;;;;;;;;;6043759;23;20016;-96
2021/08/14 11:04:41;;;;;;;8.82;2.67;;;;;;;;;;6043858;23;20012;-96
2021/08/14 11:07:35;;;;;;;8.40;2.78;;;;;;;;;;6044214;23;20022;-95
2021/08/14 11:10:01;;;;;;;8.45;3.15;;;;;;;;;;6098941;23;20441;-95
2021/08/14 11:12:32;;;;;;;5.25;2.38;;;;;;;;;;6131505;23;20013;-96
2021/08/14 11:15:16;;;;;;;9.10;3.90;;;;;;;;;;6134476;23;20020;-96
2021/08/14 11:17:44;;;;;;;9.60;2.88;;;;;;;;;;6135423;23;20014;-96
2021/08/14 11:20:20;;;;;;;3.70;2.75;;;;;;;;;;6130854;23;20014;-95
2021/08/14 11:22:49;;;;;;;10.23;4.50;;;;;;;;;;6129663;23;20018;-94
2021/08/14 11:25:22;;;;;;;7.93;2.95;;;;;;;;;;6130325;23;20238;-95
2021/08/14 11:27:55;;;;;;;11.90;4.90;;;;;;;;;;6130398;23;20038;-96
2021/08/14 11:30:24;;;;;;;13.60;5.65;;;;;;;;;;6131140;23;20002;-95
2021/08/14 11:32:50;;;;;;;10.55;4.18;;;;;;;;;;6131510;23;20006;-95
2021/08/14 11:35:18;;;;;;;9.63;3.88;;;;;;;;;;6131737;23;20361;-95
2021/08/14 11:37:53;;;;;;;20.42;4.30;;;;;;;;;;6132709;23;20005;-96
2021/08/14 11:40:22;;;;;;;9.70;4.28;;;;;;;;;;6131401;23;20126;-96
2021/08/14 11:42:58;;;;;;;9.95;4.65;;;;;;;;;;6132026;23;20096;-96
2021/08/14 11:45:24;;;;;;;7.28;3.53;;;;;;;;;;6135325;23;20002;-96
2021/08/14 11:47:57;;;;;;;15.60;4.18;;;;;;;;;;6132157;23;20010;-96
2021/08/14 11:50:23;;;;;;;8.20;3.33;;;;;;;;;;6130526;23;20025;-94
2021/08/14 11:52:49;;;;;;;9.07;3.30;;;;;;;;;;6131833;23;20448;-95
2021/08/14 11:55:16;;;;;;;9.10;2.90;;;;;;;;;;6129781;23;20006;-96
2021/08/14 11:57:44;;;;;;;9.82;4.35;;;;;;;;;;6133082;23;20006;-96
2021/08/14 12:00:19;;;;;;;10.43;3.58;;;;;;;;;;6131793;23;20037;-96
2021/08/14 12:02:45;;;;;;;12.18;3.53;;;;;;;;;;6130301;23;20014;-95
2021/08/14 12:05:11;;;;;;;8.60;3.10;;;;;;;;;;6130098;23;20009;-96
2021/08/14 12:07:37;;;;;;;11.07;4.32;;;;;;;;;;6129822;23;20002;-94
2021/08/14 12:10:04;;;;;;;7.53;3.72;;;;;;;;;;6132715;23;20030;-96
2021/08/14 12:12:31;;;;;;;6.00;3.15;;;;;;;;;;6139318;23;20013;-96
2021/08/14 12:15:01;;;;;;;;;;;34.50;52.40;;;;;;6136902;23;20049;-96
2021/08/14 12:17:27;;;;;;;13.20;3.45;;;;;;;;;;6135455;23;19919;-95
2021/08/14 12:19:55;;;;;;;8.63;2.50;;;;;;;;;;6133306;23;20002;-96
2021/08/14 12:22:21;;;;;;;7.20;4.07;;;;;;;;;;6134616;23;20076;-95
2021/08/14 12:24:48;;;;;;;6.30;2.92;;;;;;;;;;6129490;23;20083;-95
2021/08/14 12:27:26;;;;;;;10.48;3.95;;;;;;;;;;6128549;23;20093;-95
2021/08/14 12:29:53;;;;;;;9.55;3.45;;;;;;;;;;6132945;23;20010;-96
2021/08/14 12:32:20;;;;;;;19.13;4.35;;;;;;;;;;6132996;23;20002;-95
2021/08/14 12:34:46;;;;;;;10.98;3.58;;;;;;;;;;6131704;23;20033;-96
2021/08/14 12:37:13;;;;;;;10.33;3.40;;;;;;;;;;6130156;23;20006;-96
2021/08/14 12:39:43;;;;;;;5.82;3.33;;;;;;;;;;6130558;23;20242;-95
2021/08/14 12:42:20;;;;;;;8.10;3.53;;;;;;;;;;6133108;23;20093;-95
2021/08/14 12:44:48;;;;;;;11.27;3.45;;;;;;;;;;6130981;23;20006;-95
2021/08/14 12:47:14;;;;;;;4.90;3.42;;;;;;;;;;6133727;23;20025;-95
2021/08/14 12:49:40;;;;;;;12.27;3.58;;;;;;;;;;6130337;23;20044;-95
2021/08/14 12:52:08;;;;;;;;;;;33.60;53.10;;;;;;6133555;23;20018;-95
2021/08/14 12:54:35;;;;;;;10.00;3.85;;;;;;;;;;6129978;23;19901;-96
2021/08/14 12:57:04;;;;;;;10.65;3.45;;;;;;;;;;6132242;23;20012;-96
2021/08/14 12:59:31;;;;;;;9.43;2.90;;;;;;;;;;6129311;23;20010;-95
2021/08/14 13:02:04;;;;;;;8.52;3.63;;;;;;;;;;6132155;23;20021;-96
2021/08/14 13:04:31;;;;;;;7.93;3.95;;;;;;;;;;6129479;23;20013;-95
2021/08/14 13:06:57;;;;;;;;;;;33.30;56.70;;;;;;6135069;23;20006;-95
2021/08/14 13:09:26;;;;;;;8.05;3.50;;;;;;;;;;6108833;23;19905;-96
2021/08/14 13:11:52;;;;;;;5.90;3.60;;;;;;;;;;6133067;23;20006;-96
2021/08/14 13:14:20;;;;;;;15.63;4.05;;;;;;;;;;6130199;23;19994;-95
2021/08/14 13:16:46;;;;;;;;;;;33.10;56.70;;;;;;6134565;23;20064;-95
2021/08/14 13:19:12;;;;;;;16.67;5.20;;;;;;;;;;6131719;23;19900;-96
2021/08/14 13:21:38;;;;;;;11.63;3.83;;;;;;;;;;6108130;23;20021;-96
2021/08/14 13:24:05;;;;;;;12.38;3.65;;;;;;;;;;6131056;23;20006;-96
2021/08/14 13:26:33;;;;;;;7.00;3.20;;;;;;;;;;6133055;23;20010;-96
2021/08/14 13:29:00;;;;;;;15.45;3.70;;;;;;;;;;6130184;23;20004;-95
2021/08/14 13:31:26;;;;;;;10.82;3.83;;;;;;;;;;6130122;23;20057;-94
2021/08/14 13:33:52;;;;;;;12.00;4.60;;;;;;;;;;6127222;23;20013;-95
2021/08/14 13:36:19;;;;;;;6.50;3.60;;;;;;;;;;6130534;23;20852;-95
2021/08/14 13:38:45;;;;;;;6.00;3.50;;;;;;;;;;6132399;23;20030;-96
2021/08/14 13:41:13;;;;;;;9.98;3.10;;;;;;;;;;6130468;23;20016;-96
2021/08/14 13:43:40;;;;;;;8.80;3.50;;;;;;;;;;6130963;23;20084;-96
2021/08/14 13:46:06;;;;;;;5.90;3.70;;;;;;;;;;6129227;23;20009;-95
2021/08/14 13:48:32;;;;;;;12.10;3.92;;;;;;;;;;6130329;23;20084;-95
2021/08/14 13:51:01;;;;;;;19.87;5.93;;;;;;;;;;6129284;23;20015;-96
2021/08/14 13:53:27;;;;;;;10.68;3.80;;;;;;;;;;6133712;23;20078;-95
2021/08/14 13:55:53;;;;;;;7.87;3.57;;;;;;;;;;6127667;23;20010;-96
2021/08/14 13:58:20;;;;;;;8.70;3.42;;;;;;;;;;6129875;23;20321;-95
2021/08/14 14:00:46;;;;;;;9.85;3.80;;;;;;;;;;6129165;23;20079;-96
2021/08/14 14:03:12;;;;;;;9.57;3.67;;;;;;;;;;6129454;23;20021;-96
2021/08/14 14:05:39;;;;;;;9.27;3.97;;;;;;;;;;6130360;23;20010;-96
2021/08/14 14:08:05;;;;;;;;;;;32.60;55.80;;;;;;6129221;23;20028;-96
2021/08/14 14:10:31;;;;;;;9.03;3.30;;;;;;;;;;6101058;23;20243;-95
2021/08/14 14:12:57;;;;;;;11.20;3.40;;;;;;;;;;6129374;23;20025;-96
2021/08/14 14:15:23;;;;;;;13.70;4.20;;;;;;;;;;6131760;23;19998;-95
2021/08/14 14:17:49;;;;;;;8.75;4.07;;;;;;;;;;6111756;23;20014;-96
2021/08/14 14:20:15;;;;;;;10.53;3.83;;;;;;;;;;6101487;23;20026;-96
2021/08/14 14:22:45;;;;;;;13.33;4.97;;;;;;;;;;6101229;23;20010;-96
2021/08/14 14:25:12;;;;;;;8.60;3.60;;;;;;;;;;6101169;23;20014;-95
2021/08/14 14:27:39;;;;;;;7.15;4.18;;;;;;;;;;6101391;23;20003;-94
2021/08/14 14:30:11;;;;;;;11.65;4.68;;;;;;;;;;6103349;23;20007;-96
2021/08/14 14:32:39;;;;;;;12.40;3.92;;;;;;;;;;6101831;23;20148;-95
2021/08/14 14:35:05;;;;;;;8.02;4.70;;;;;;;;;;6101500;23;20007;-96